Provincetown III — WDB8185 — position and weather

sailwx.info

Track history (hours):
 
Tides and Currents Weather Stations Pressure Air Temp Water Temp Dewpoint Dewpoint Depression Visibility Wind Speed Wind Dir Waves Ship Positions

Provincetown III

Owner: MYSTIC FERRY LEASING LLC, BOSTON, MA. More information available from US FCC via Universal Licensing System and Coast Guard Vessel Documentation Center.

Last reported at 2017-Apr-26 21:17 UTC. Time now 2017-Apr-27 07:24 UTC.
Position N 18°24' W 064°38'.

Length 30 m; draft 2 m.

Type: Passenger vessel. MMSI: 366954420.

Date/timePositionNaut miles runAvg speedWind from/ knotsBaromVisibWave heightAir tempDewpointWater temp
2017-Apr-26 21:17N 18°24' W 064°38'622.8
2017-Apr-26 21:00N 18°23' W 064°44'9 5.2
2017-Apr-26 19:18N 18°18' W 064°52'723.1
2017-Apr-26 19:00N 18°22' W 064°47'9 4.5
2017-Apr-26 17:00N 18°24' W 064°37'1122.8
2017-Apr-26 16:30N 18°20' W 064°48'4 2.8
2017-Apr-26 14:56N 18°18' W 064°52'1022.7
2017-Apr-26 14:30N 18°23' W 064°43'6 5.5
2017-Apr-26 13:28N 18°24' W 064°37'1022.8
2017-Apr-26 13:00N 18°21' W 064°48'5 4.0
2017-Apr-26 11:42N 18°18' W 064°52'523.5
2017-Apr-26 11:30N 18°20' W 064°48'1223.1
2017-Apr-26 11:00N 18°24' W 064°37'1 0.1
2017-Apr-25 21:13N 18°24' W 064°38'522.8
2017-Apr-25 21:00N 18°23' W 064°43'11 6.3
2017-Apr-25 19:16N 18°18' W 064°53'622.9
2017-Apr-25 19:00N 18°21' W 064°47'10 4.8
2017-Apr-25 16:59N 18°24' W 064°38'1122.6
2017-Apr-25 16:30N 18°20' W 064°49'4 2.6
2017-Apr-25 14:50N 18°18' W 064°52'823.2
2017-Apr-25 14:30N 18°22' W 064°46'7 7.1
2017-Apr-25 13:30N 18°23' W 064°38'1122.7
2017-Apr-25 13:00N 18°19' W 064°50'4 3.4
2017-Apr-25 11:46N 18°18' W 064°54'622.7
2017-Apr-25 11:30N 18°21' W 064°48'1123.0
2017-Apr-25 11:00N 18°25' W 064°37'0 0.0
2017-Apr-24 21:32N 18°25' W 064°37'123.3
2017-Apr-24 21:29N 18°24' W 064°38'1122.1
2017-Apr-24 21:00N 18°20' W 064°48'5 2.6
2017-Apr-24 19:14N 18°18' W 064°52'523.0
2017-Apr-24 19:00N 18°21' W 064°48'10 5.8
2017-Apr-24 17:17N 18°24' W 064°37'622.1
2017-Apr-24 17:00N 18°23' W 064°44'9 4.1
2017-Apr-24 14:42N 18°18' W 064°52'423.6
2017-Apr-24 14:30N 18°20' W 064°48'1110.8
2017-Apr-24 13:29N 18°24' W 064°37'1122.5
2017-Apr-24 13:00N 18°21' W 064°48'5 4.1
2017-Apr-24 11:45N 18°18' W 064°53'523.0
2017-Apr-24 11:30N 18°21' W 064°48'1122.8
2017-Apr-24 11:00N 18°25' W 064°37'0 0.0
2017-Apr-23 21:49N 18°24' W 064°37'721.6
2017-Apr-23 21:30N 18°23' W 064°44'10 5.3
2017-Apr-23 19:43N 18°18' W 064°52'523.2
2017-Apr-23 19:30N 18°21' W 064°48'1223.4
2017-Apr-23 19:00N 18°24' W 064°37'3 6.0
2017-Apr-23 18:30N 18°23' W 064°39'1121.8
2017-Apr-23 18:00N 18°19' W 064°50'2 2.1
2017-Apr-23 16:50N 18°18' W 064°52'722.7
2017-Apr-23 16:30N 18°22' W 064°46'911.1
2017-Apr-23 15:43N 18°24' W 064°37'522.4
2017-Apr-23 15:30N 18°23' W 064°41'1122.2
2017-Apr-23 15:00N 18°18' W 064°52'1 0.7
2017-Apr-23 13:54N 18°18' W 064°53'922.9
2017-Apr-23 13:30N 18°23' W 064°45'8 0.5
2017-Apr-22 21:24N 18°25' W 064°37'821.4
2017-Apr-22 21:00N 18°23' W 064°45'8 5.0
2017-Apr-22 19:19N 18°18' W 064°53'722.8
2017-Apr-22 19:00N 18°22' W 064°46'10 5.4
2017-Apr-22 17:15N 18°24' W 064°37'521.6
2017-Apr-22 17:00N 18°23' W 064°42'11 5.5
2017-Apr-22 14:59N 18°18' W 064°53'1512.0
2017-Apr-22 13:42N 18°24' W 064°37'422.5
2017-Apr-22 13:30N 18°23' W 064°42'11 7.4
2017-Apr-22 12:01N 18°18' W 064°52'024.1
2017-Apr-22 12:00N 18°18' W 064°52'1122.8
2017-Apr-22 11:30N 18°23' W 064°41'5 0.4
2017-Apr-21 21:34N 18°25' W 064°37'222.5
2017-Apr-21 21:29N 18°23' W 064°38'1122.0
2017-Apr-21 21:00N 18°20' W 064°49'4 2.4
2017-Apr-21 19:16N 18°18' W 064°52'623.4
2017-Apr-21 19:00N 18°21' W 064°47'10 4.7
2017-Apr-21 16:56N 18°24' W 064°37'922.0
2017-Apr-21 16:31N 18°22' W 064°47'6 3.8
2017-Apr-21 14:47N 18°18' W 064°52'623.1
2017-Apr-21 14:30N 18°22' W 064°47'9 8.9
2017-Apr-21 13:28N 18°24' W 064°37'1022.4
2017-Apr-21 13:00N 18°21' W 064°48'7 6.0
2017-Apr-21 11:53N 18°18' W 064°54'922.5
2017-Apr-21 11:30N 18°22' W 064°46'9 0.7
2017-Apr-20 21:16N 18°24' W 064°37'623.1
2017-Apr-20 21:01N 18°23' W 064°43'10 5.8
2017-Apr-20 19:12N 18°18' W 064°52'524.0
2017-Apr-20 19:00N 18°20' W 064°48'1223.4
2017-Apr-20 18:30N 18°24' W 064°37'1 0.7
2017-Apr-20 17:23N 18°25' W 064°37'514.2
2017-Apr-20 17:01N 18°23' W 064°42'11 5.3
2017-Apr-20 14:55N 18°18' W 064°52'923.2
2017-Apr-20 14:31N 18°23' W 064°44'1 0.7
2017-Apr-20 13:30N 18°23' W 064°45'10 6.0
2017-Apr-20 11:47N 18°18' W 064°55'622.3
2017-Apr-20 11:31N 18°20' W 064°48'1223.0
2017-Apr-20 11:00N 18°24' W 064°37'8 0.6
2017-Apr-19 20:56N 18°22' W 064°46'921.6
2017-Apr-19 20:31N 18°18' W 064°54'2 1.6
2017-Apr-19 19:22N 18°19' W 064°56'821.1
2017-Apr-19 19:01N 18°21' W 064°48'1122.9
2017-Apr-19 18:31N 18°25' W 064°37'1 0.8
2017-Apr-19 16:56N 18°24' W 064°38'922.4
2017-Apr-19 16:31N 18°21' W 064°47'6 3.5
2017-Apr-19 14:51N 18°18' W 064°52'823.1
2017-Apr-19 14:30N 18°22' W 064°46'8 7.3
2017-Apr-19 13:25N 18°24' W 064°37'922.1
2017-Apr-19 13:01N 18°22' W 064°47'7 5.2
2017-Apr-19 11:43N 18°18' W 064°52'523.5
2017-Apr-19 11:31N 18°21' W 064°48'11 0.8
2017-Apr-18 21:27N 18°24' W 064°37'1022.3
2017-Apr-18 21:00N 18°22' W 064°47'7 4.1
2017-Apr-18 19:25N 18°18' W 064°52'923.4
2017-Apr-18 19:00N 18°23' W 064°44'7 3.5
2017-Apr-18 16:59N 18°24' W 064°37'1122.6
2017-Apr-18 16:30N 18°21' W 064°48'5 3.3
2017-Apr-18 14:52N 18°18' W 064°53'822.6
2017-Apr-18 14:30N 18°23' W 064°45'5 4.6
2017-Apr-18 13:30N 18°23' W 064°41'1121.8
2017-Apr-18 13:00N 18°18' W 064°51'2 1.8
2017-Apr-18 12:00N 18°18' W 064°53'1123.2
2017-Apr-18 11:30N 18°23' W 064°42'5 0.4
2017-Apr-17 21:37N 18°24' W 064°37'321.9
2017-Apr-17 21:30N 18°23' W 064°39'1021.2
2017-Apr-17 21:00N 18°19' W 064°49'3 1.9
2017-Apr-17 19:15N 18°18' W 064°52'623.9
2017-Apr-17 19:00N 18°21' W 064°47'11 5.4
2017-Apr-17 17:03N 18°24' W 064°37'123.4
2017-Apr-17 17:00N 18°24' W 064°38'1122.1
2017-Apr-17 16:30N 18°20' W 064°49'4 2.6
2017-Apr-17 14:54N 18°18' W 064°52'1511.4
2017-Apr-17 13:34N 18°24' W 064°38'122.8
2017-Apr-17 13:30N 18°23' W 064°39'1121.8
2017-Apr-17 13:00N 18°19' W 064°50'3 2.7
2017-Apr-17 11:51N 18°18' W 064°53'822.9
2017-Apr-17 11:30N 18°22' W 064°46'9 0.6
2017-Apr-16 21:30N 18°24' W 064°37'  
Track history (hours):
 
Tides and Currents Weather Stations Pressure Air Temp Water Temp Dewpoint Dewpoint Depression Visibility Wind Speed Wind Dir Waves Ship Positions

Provincetown III

Owner: MYSTIC FERRY LEASING LLC, BOSTON, MA. More information available from US FCC via Universal Licensing System and Coast Guard Vessel Documentation Center.

Last reported at 2017-Apr-26 21:17 UTC. Time now 2017-Apr-27 07:24 UTC.
Position N 18°24' W 064°38'.

Length 30 m; draft 2 m.

Type: Passenger vessel. MMSI: 366954420.

Date/timePositionNaut miles runAvg speedWind from/ knotsBaromVisibWave heightAir tempDewpointWater temp
2017-Apr-26 21:17N 18°24' W 064°38'622.8
2017-Apr-26 21:00N 18°23' W 064°44'9 5.2
2017-Apr-26 19:18N 18°18' W 064°52'723.1
2017-Apr-26 19:00N 18°22' W 064°47'9 4.5
2017-Apr-26 17:00N 18°24' W 064°37'1122.8
2017-Apr-26 16:30N 18°20' W 064°48'4 2.8
2017-Apr-26 14:56N 18°18' W 064°52'1022.7
2017-Apr-26 14:30N 18°23' W 064°43'6 5.5
2017-Apr-26 13:28N 18°24' W 064°37'1022.8
2017-Apr-26 13:00N 18°21' W 064°48'5 4.0
2017-Apr-26 11:42N 18°18' W 064°52'523.5
2017-Apr-26 11:30N 18°20' W 064°48'1223.1
2017-Apr-26 11:00N 18°24' W 064°37'1 0.1
2017-Apr-25 21:13N 18°24' W 064°38'522.8
2017-Apr-25 21:00N 18°23' W 064°43'11 6.3
2017-Apr-25 19:16N 18°18' W 064°53'622.9
2017-Apr-25 19:00N 18°21' W 064°47'10 4.8
2017-Apr-25 16:59N 18°24' W 064°38'1122.6
2017-Apr-25 16:30N 18°20' W 064°49'4 2.6
2017-Apr-25 14:50N 18°18' W 064°52'823.2
2017-Apr-25 14:30N 18°22' W 064°46'7 7.1
2017-Apr-25 13:30N 18°23' W 064°38'1122.7
2017-Apr-25 13:00N 18°19' W 064°50'4 3.4
2017-Apr-25 11:46N 18°18' W 064°54'622.7
2017-Apr-25 11:30N 18°21' W 064°48'1123.0
2017-Apr-25 11:00N 18°25' W 064°37'0 0.0
2017-Apr-24 21:32N 18°25' W 064°37'123.3
2017-Apr-24 21:29N 18°24' W 064°38'1122.1
2017-Apr-24 21:00N 18°20' W 064°48'5 2.6
2017-Apr-24 19:14N 18°18' W 064°52'523.0
2017-Apr-24 19:00N 18°21' W 064°48'10 5.8
2017-Apr-24 17:17N 18°24' W 064°37'622.1
2017-Apr-24 17:00N 18°23' W 064°44'9 4.1
2017-Apr-24 14:42N 18°18' W 064°52'423.6
2017-Apr-24 14:30N 18°20' W 064°48'1110.8
2017-Apr-24 13:29N 18°24' W 064°37'1122.5
2017-Apr-24 13:00N 18°21' W 064°48'5 4.1
2017-Apr-24 11:45N 18°18' W 064°53'523.0
2017-Apr-24 11:30N 18°21' W 064°48'1122.8
2017-Apr-24 11:00N 18°25' W 064°37'0 0.0
2017-Apr-23 21:49N 18°24' W 064°37'721.6
2017-Apr-23 21:30N 18°23' W 064°44'10 5.3
2017-Apr-23 19:43N 18°18' W 064°52'523.2
2017-Apr-23 19:30N 18°21' W 064°48'1223.4
2017-Apr-23 19:00N 18°24' W 064°37'3 6.0
2017-Apr-23 18:30N 18°23' W 064°39'1121.8
2017-Apr-23 18:00N 18°19' W 064°50'2 2.1
2017-Apr-23 16:50N 18°18' W 064°52'722.7
2017-Apr-23 16:30N 18°22' W 064°46'911.1
2017-Apr-23 15:43N 18°24' W 064°37'522.4
2017-Apr-23 15:30N 18°23' W 064°41'1122.2
2017-Apr-23 15:00N 18°18' W 064°52'1 0.7
2017-Apr-23 13:54N 18°18' W 064°53'922.9
2017-Apr-23 13:30N 18°23' W 064°45'8 0.5
2017-Apr-22 21:24N 18°25' W 064°37'821.4
2017-Apr-22 21:00N 18°23' W 064°45'8 5.0
2017-Apr-22 19:19N 18°18' W 064°53'722.8
2017-Apr-22 19:00N 18°22' W 064°46'10 5.4
2017-Apr-22 17:15N 18°24' W 064°37'521.6
2017-Apr-22 17:00N 18°23' W 064°42'11 5.5
2017-Apr-22 14:59N 18°18' W 064°53'1512.0
2017-Apr-22 13:42N 18°24' W 064°37'422.5
2017-Apr-22 13:30N 18°23' W 064°42'11 7.4
2017-Apr-22 12:01N 18°18' W 064°52'024.1
2017-Apr-22 12:00N 18°18' W 064°52'1122.8
2017-Apr-22 11:30N 18°23' W 064°41'5 0.4
2017-Apr-21 21:34N 18°25' W 064°37'222.5
2017-Apr-21 21:29N 18°23' W 064°38'1122.0
2017-Apr-21 21:00N 18°20' W 064°49'4 2.4
2017-Apr-21 19:16N 18°18' W 064°52'623.4
2017-Apr-21 19:00N 18°21' W 064°47'10 4.7
2017-Apr-21 16:56N 18°24' W 064°37'922.0
2017-Apr-21 16:31N 18°22' W 064°47'6 3.8
2017-Apr-21 14:47N 18°18' W 064°52'623.1
2017-Apr-21 14:30N 18°22' W 064°47'9 8.9
2017-Apr-21 13:28N 18°24' W 064°37'1022.4
2017-Apr-21 13:00N 18°21' W 064°48'7 6.0
2017-Apr-21 11:53N 18°18' W 064°54'922.5
2017-Apr-21 11:30N 18°22' W 064°46'9 0.7
2017-Apr-20 21:16N 18°24' W 064°37'623.1
2017-Apr-20 21:01N 18°23' W 064°43'10 5.8
2017-Apr-20 19:12N 18°18' W 064°52'524.0
2017-Apr-20 19:00N 18°20' W 064°48'1223.4
2017-Apr-20 18:30N 18°24' W 064°37'1 0.7
2017-Apr-20 17:23N 18°25' W 064°37'514.2
2017-Apr-20 17:01N 18°23' W 064°42'11 5.3
2017-Apr-20 14:55N 18°18' W 064°52'923.2
2017-Apr-20 14:31N 18°23' W 064°44'1 0.7
2017-Apr-20 13:30N 18°23' W 064°45'10 6.0
2017-Apr-20 11:47N 18°18' W 064°55'622.3
2017-Apr-20 11:31N 18°20' W 064°48'1223.0
2017-Apr-20 11:00N 18°24' W 064°37'8 0.6
2017-Apr-19 20:56N 18°22' W 064°46'921.6
2017-Apr-19 20:31N 18°18' W 064°54'2 1.6
2017-Apr-19 19:22N 18°19' W 064°56'821.1
2017-Apr-19 19:01N 18°21' W 064°48'1122.9
2017-Apr-19 18:31N 18°25' W 064°37'1 0.8
2017-Apr-19 16:56N 18°24' W 064°38'922.4
2017-Apr-19 16:31N 18°21' W 064°47'6 3.5
2017-Apr-19 14:51N 18°18' W 064°52'823.1
2017-Apr-19 14:30N 18°22' W 064°46'8 7.3
2017-Apr-19 13:25N 18°24' W 064°37'922.1
2017-Apr-19 13:01N 18°22' W 064°47'7 5.2
2017-Apr-19 11:43N 18°18' W 064°52'523.5
2017-Apr-19 11:31N 18°21' W 064°48'11 0.8
2017-Apr-18 21:27N 18°24' W 064°37'1022.3
2017-Apr-18 21:00N 18°22' W 064°47'7 4.1
2017-Apr-18 19:25N 18°18' W 064°52'923.4
2017-Apr-18 19:00N 18°23' W 064°44'7 3.5
2017-Apr-18 16:59N 18°24' W 064°37'1122.6
2017-Apr-18 16:30N 18°21' W 064°48'5 3.3
2017-Apr-18 14:52N 18°18' W 064°53'822.6
2017-Apr-18 14:30N 18°23' W 064°45'5 4.6
2017-Apr-18 13:30N 18°23' W 064°41'1121.8
2017-Apr-18 13:00N 18°18' W 064°51'2 1.8
2017-Apr-18 12:00N 18°18' W 064°53'1123.2
2017-Apr-18 11:30N 18°23' W 064°42'5 0.4
2017-Apr-17 21:37N 18°24' W 064°37'321.9
2017-Apr-17 21:30N 18°23' W 064°39'1021.2
2017-Apr-17 21:00N 18°19' W 064°49'3 1.9
2017-Apr-17 19:15N 18°18' W 064°52'623.9
2017-Apr-17 19:00N 18°21' W 064°47'11 5.4
2017-Apr-17 17:03N 18°24' W 064°37'123.4
2017-Apr-17 17:00N 18°24' W 064°38'1122.1
2017-Apr-17 16:30N 18°20' W 064°49'4 2.6
2017-Apr-17 14:54N 18°18' W 064°52'1511.4
2017-Apr-17 13:34N 18°24' W 064°38'122.8
2017-Apr-17 13:30N 18°23' W 064°39'1121.8
2017-Apr-17 13:00N 18°19' W 064°50'3 2.7
2017-Apr-17 11:51N 18°18' W 064°53'822.9
2017-Apr-17 11:30N 18°22' W 064°46'9 0.6
2017-Apr-16 21:30N 18°24' W 064°37'  

Dump ship's entire track history